createdAt,value
2022-11-17T00:01:42.432Z,4.70
2022-11-17T00:04:12.058Z,4.20
2022-11-17T00:06:40.292Z,3.93
2022-11-17T00:09:17.460Z,3.90
2022-11-17T00:12:03.756Z,4.23
2022-11-17T00:14:36.874Z,4.20
2022-11-17T00:17:07.565Z,3.60
2022-11-17T00:19:54.820Z,3.27
2022-11-17T00:22:23.335Z,4.40
2022-11-17T00:24:51.679Z,3.53
2022-11-17T00:27:20.075Z,3.10
2022-11-17T00:29:48.334Z,2.90
2022-11-17T00:32:35.276Z,3.13
2022-11-17T00:35:05.965Z,2.40
2022-11-17T00:37:38.279Z,2.70
2022-11-17T00:40:07.670Z,2.57
2022-11-17T00:42:35.856Z,2.40
2022-11-17T00:45:04.348Z,1.90
2022-11-17T00:47:36.678Z,1.80
2022-11-17T00:50:07.516Z,2.30
2022-11-17T00:52:35.740Z,1.93
2022-11-17T00:55:04.308Z,2.07
2022-11-17T00:57:32.625Z,2.53
2022-11-17T01:00:00.836Z,2.47
2022-11-17T01:02:29.113Z,2.70
2022-11-17T01:04:57.273Z,2.30
2022-11-17T01:07:27.106Z,2.33
2022-11-17T01:09:55.484Z,2.90
2022-11-17T01:12:23.676Z,2.37
2022-11-17T01:14:52.000Z,2.03
2022-11-17T01:17:20.325Z,1.93
2022-11-17T01:19:50.558Z,2.00
2022-11-17T01:22:19.639Z,1.97
2022-11-17T01:24:49.348Z,2.00
2022-11-17T01:27:18.316Z,2.00
2022-11-17T01:29:46.697Z,2.80
2022-11-17T01:32:14.896Z,2.13
2022-11-17T01:34:43.156Z,2.80
2022-11-17T01:37:23.151Z,2.30
2022-11-17T01:39:52.772Z,2.33
2022-11-17T01:42:23.619Z,2.43
2022-11-17T01:45:01.182Z,2.37
2022-11-17T01:47:38.986Z,2.30
2022-11-17T01:50:11.515Z,2.33
2022-11-17T01:52:41.233Z,2.50
2022-11-17T01:55:12.472Z,2.47
2022-11-17T01:57:44.934Z,2.37
2022-11-17T02:00:15.055Z,2.80
2022-11-17T02:02:44.777Z,2.00
2022-11-17T02:05:27.278Z,3.07
2022-11-17T02:07:58.548Z,3.30
2022-11-17T02:10:31.430Z,3.07
2022-11-17T02:13:00.146Z,2.63
2022-11-17T02:15:30.125Z,3.37
2022-11-17T02:17:59.417Z,2.20
2022-11-17T02:20:51.981Z,4.40
2022-11-17T02:23:58.640Z,5.10
2022-11-17T02:27:01.751Z,3.57
2022-11-17T02:29:37.527Z,2.80
2022-11-17T02:32:09.790Z,2.60
2022-11-17T02:34:46.777Z,2.93
2022-11-17T02:37:24.604Z,2.30
2022-11-17T02:39:59.814Z,2.77
2022-11-17T02:42:54.146Z,2.67
2022-11-17T02:45:30.237Z,3.03
2022-11-17T02:48:01.122Z,2.20
2022-11-17T02:50:30.910Z,2.30
2022-11-17T02:52:59.201Z,1.90
2022-11-17T02:55:27.953Z,2.53
2022-11-17T02:57:56.119Z,1.90
2022-11-17T03:00:27.961Z,2.00
2022-11-17T03:03:24.332Z,2.33
2022-11-17T03:06:03.233Z,1.90
2022-11-17T03:08:41.769Z,1.67
2022-11-17T03:11:11.065Z,1.73
2022-11-17T03:13:50.402Z,1.57
2022-11-17T03:16:28.947Z,2.37
2022-11-17T03:19:07.562Z,2.07
2022-11-17T03:21:42.802Z,1.73
2022-11-17T03:24:15.913Z,1.67
2022-11-17T03:26:48.652Z,1.70
2022-11-17T03:29:21.551Z,1.37
2022-11-17T03:31:57.891Z,1.50
2022-11-17T03:34:30.555Z,1.43
2022-11-17T03:37:03.067Z,1.80
2022-11-17T03:39:33.916Z,1.80
2022-11-17T03:42:08.111Z,1.40
2022-11-17T03:44:39.389Z,1.90
2022-11-17T03:47:11.836Z,1.80
2022-11-17T03:49:45.939Z,1.47
2022-11-17T03:52:14.586Z,1.20
2022-11-17T03:54:43.275Z,1.90
2022-11-17T03:57:17.149Z,1.50
2022-11-17T03:59:53.072Z,1.30
2022-11-17T04:02:25.113Z,1.30
2022-11-17T04:05:08.692Z,1.33
2022-11-17T04:07:40.230Z,1.40
2022-11-17T04:10:10.764Z,2.57
2022-11-17T04:12:57.868Z,1.57
2022-11-17T04:15:52.529Z,1.40
2022-11-17T04:18:23.344Z,1.50
2022-11-17T04:20:52.204Z,1.80
2022-11-17T04:23:20.802Z,1.60
2022-11-17T04:26:08.256Z,1.40
2022-11-17T04:28:38.915Z,1.53
2022-11-17T04:31:10.767Z,2.83
2022-11-17T04:33:42.363Z,1.20
2022-11-17T04:36:11.501Z,1.57
2022-11-17T04:38:43.127Z,1.43
2022-11-17T04:41:30.739Z,1.50
2022-11-17T04:43:59.501Z,1.80
2022-11-17T04:46:28.384Z,1.20
2022-11-17T04:48:58.893Z,1.30
2022-11-17T04:51:27.956Z,1.37
2022-11-17T04:53:56.896Z,1.30
2022-11-17T04:56:26.273Z,1.20
2022-11-17T04:58:55.694Z,1.30
2022-11-17T05:01:32.113Z,1.70
2022-11-17T05:04:07.477Z,1.30
2022-11-17T05:06:38.101Z,1.10
2022-11-17T05:09:09.024Z,1.23
2022-11-17T05:11:55.201Z,1.20
2022-11-17T05:14:25.411Z,1.07
2022-11-17T05:17:09.556Z,1.20
2022-11-17T05:19:41.351Z,1.47
2022-11-17T05:22:25.117Z,1.37
2022-11-17T05:24:53.587Z,1.10
2022-11-17T05:27:22.351Z,1.20
2022-11-17T05:29:50.906Z,1.40
2022-11-17T05:32:20.418Z,1.30
2022-11-17T05:34:50.080Z,1.20
2022-11-17T05:37:18.616Z,1.17
2022-11-17T05:39:47.416Z,1.60
2022-11-17T05:42:15.598Z,1.13
2022-11-17T05:44:43.954Z,1.30
2022-11-17T05:47:12.283Z,1.30
2022-11-17T05:49:40.769Z,1.47
2022-11-17T05:52:10.466Z,1.40
2022-11-17T05:54:38.692Z,1.03
2022-11-17T05:57:10.868Z,1.70
2022-11-17T05:59:43.519Z,1.30
2022-11-17T06:02:16.866Z,1.60
2022-11-17T06:04:46.460Z,1.33
2022-11-17T06:07:17.979Z,1.60
2022-11-17T06:09:47.782Z,1.30
2022-11-17T06:12:16.607Z,1.07
2022-11-17T06:14:44.902Z,1.57
2022-11-17T06:17:22.165Z,1.53
2022-11-17T06:19:56.972Z,1.30
2022-11-17T06:22:28.813Z,1.30
2022-11-17T06:24:57.533Z,1.30
2022-11-17T06:27:26.736Z,1.30
2022-11-17T06:29:57.364Z,1.40
2022-11-17T06:32:25.715Z,1.20
2022-11-17T06:34:56.025Z,1.23
2022-11-17T06:37:26.439Z,1.80
2022-11-17T06:39:54.818Z,1.60
2022-11-17T06:42:44.025Z,1.30
2022-11-17T06:45:13.174Z,1.30
2022-11-17T06:47:41.439Z,1.10
2022-11-17T06:50:10.732Z,1.33
2022-11-17T06:52:41.355Z,1.13
2022-11-17T06:55:10.078Z,1.20
2022-11-17T06:57:38.494Z,0.93
2022-11-17T07:00:08.045Z,1.30
2022-11-17T07:02:37.260Z,0.80
2022-11-17T07:05:06.156Z,1.10
2022-11-17T07:07:35.483Z,3.77
2022-11-17T07:10:06.857Z,1.50
2022-11-17T07:12:35.260Z,1.57
2022-11-17T07:15:03.573Z,1.27
2022-11-17T07:17:32.923Z,1.57
2022-11-17T07:20:01.214Z,1.50
2022-11-17T07:22:29.563Z,1.40
2022-11-17T07:24:58.070Z,1.40
2022-11-17T07:27:27.770Z,2.00
2022-11-17T07:29:55.937Z,3.30
2022-11-17T07:32:24.371Z,3.00
2022-11-17T07:34:53.002Z,1.77
2022-11-17T07:37:21.763Z,3.00
2022-11-17T07:39:50.077Z,1.97
2022-11-17T07:42:18.971Z,2.60
2022-11-17T07:44:55.707Z,2.70
2022-11-17T07:47:24.059Z,2.67
2022-11-17T07:49:52.379Z,2.23
2022-11-17T07:52:21.049Z,1.50
2022-11-17T07:54:49.258Z,1.50
2022-11-17T07:57:17.693Z,1.90
2022-11-17T07:59:46.370Z,2.00
2022-11-17T08:02:16.059Z,2.27
2022-11-17T08:04:44.481Z,1.80
2022-11-17T08:07:12.835Z,2.33
2022-11-17T08:09:41.104Z,1.63
2022-11-17T08:12:10.623Z,1.50
2022-11-17T08:14:38.998Z,1.77
2022-11-17T08:17:07.334Z,1.87
2022-11-17T08:19:37.043Z,1.80
2022-11-17T08:22:05.352Z,2.00
2022-11-17T08:24:33.630Z,1.90
2022-11-17T08:27:01.970Z,1.67
2022-11-17T08:29:30.288Z,1.83
2022-11-17T08:31:58.690Z,1.67
2022-11-17T08:34:27.016Z,2.00
2022-11-17T08:36:56.695Z,2.10
2022-11-17T08:39:25.031Z,2.33
2022-11-17T08:41:53.560Z,2.40
2022-11-17T08:44:21.918Z,2.50
2022-11-17T08:46:50.320Z,2.53
2022-11-17T08:49:20.650Z,2.70
2022-11-17T08:51:49.235Z,2.50
2022-11-17T08:54:20.038Z,2.60
2022-11-17T08:56:48.357Z,2.80
2022-11-17T08:59:16.590Z,2.47
2022-11-17T09:01:44.917Z,2.30
2022-11-17T09:04:13.878Z,2.70
2022-11-17T09:06:42.194Z,2.70
2022-11-17T09:09:10.649Z,2.80
2022-11-17T09:11:40.457Z,2.90
2022-11-17T09:14:08.908Z,2.13
2022-11-17T09:16:37.577Z,1.90
2022-11-17T09:19:06.095Z,2.50
2022-11-17T09:21:35.030Z,2.23
2022-11-17T09:24:03.391Z,2.70
2022-11-17T09:26:31.819Z,2.60
2022-11-17T09:29:04.049Z,2.60
2022-11-17T09:31:32.561Z,2.90
2022-11-17T09:34:05.301Z,2.40
2022-11-17T09:36:34.869Z,2.67
2022-11-17T09:39:03.128Z,3.03
2022-11-17T09:41:36.959Z,3.00
2022-11-17T09:44:17.305Z,2.83
2022-11-17T09:46:58.347Z,2.97
2022-11-17T09:49:37.161Z,3.00
2022-11-17T09:52:17.106Z,3.80
2022-11-17T09:54:52.121Z,3.17
2022-11-17T09:57:30.154Z,3.20
2022-11-17T10:00:07.453Z,2.90
2022-11-17T10:02:35.886Z,2.43
2022-11-17T10:05:04.693Z,3.07
2022-11-17T10:07:35.971Z,2.90
2022-11-17T10:10:07.207Z,2.50
2022-11-17T10:12:45.289Z,2.77
2022-11-17T10:15:25.657Z,2.40
2022-11-17T10:17:53.967Z,2.10
2022-11-17T10:20:22.292Z,2.43
2022-11-17T10:22:53.457Z,2.40
2022-11-17T10:25:37.880Z,1.97
2022-11-17T10:28:08.271Z,2.10
2022-11-17T10:30:37.939Z,2.03
2022-11-17T10:33:06.302Z,2.20
2022-11-17T10:35:35.985Z,2.30
2022-11-17T10:38:07.378Z,2.87
2022-11-17T10:40:49.834Z,2.07
2022-11-17T10:43:24.762Z,2.17
2022-11-17T10:45:56.477Z,2.13
2022-11-17T10:48:28.187Z,1.97
2022-11-17T10:50:58.236Z,2.70
2022-11-17T10:53:30.416Z,2.37
2022-11-17T10:56:03.733Z,2.23
2022-11-17T10:58:33.305Z,2.30
2022-11-17T11:01:04.514Z,2.17
2022-11-17T11:03:34.674Z,1.80
2022-11-17T11:06:06.215Z,2.57
2022-11-17T11:08:50.398Z,1.83
2022-11-17T11:11:34.958Z,2.53
2022-11-17T11:14:13.511Z,2.10
2022-11-17T11:16:48.012Z,1.90
2022-11-17T11:19:19.514Z,2.10
2022-11-17T11:22:14.683Z,2.13
2022-11-17T11:24:56.185Z,2.00
2022-11-17T11:27:35.481Z,2.43
2022-11-17T11:30:06.779Z,1.83
2022-11-17T11:32:50.119Z,2.10
2022-11-17T11:35:37.903Z,2.20
2022-11-17T11:38:17.700Z,2.20
2022-11-17T11:41:00.141Z,2.63
2022-11-17T11:43:40.977Z,2.53
2022-11-17T11:46:17.185Z,2.03
2022-11-17T11:48:49.236Z,2.70
2022-11-17T11:51:20.410Z,2.00
2022-11-17T11:53:55.995Z,2.73
2022-11-17T11:56:29.015Z,2.10
2022-11-17T11:59:02.227Z,2.50
2022-11-17T12:01:40.295Z,2.13
2022-11-17T12:04:25.039Z,2.20
2022-11-17T12:07:02.585Z,2.73
2022-11-17T12:09:49.393Z,6.40
2022-11-17T12:12:21.519Z,7.20
2022-11-17T12:15:09.510Z,7.93
2022-11-17T12:17:38.703Z,7.77
2022-11-17T12:20:52.290Z,6.13
2022-11-17T12:23:30.930Z,2.73
2022-11-17T12:26:01.430Z,2.20
2022-11-17T12:28:33.176Z,2.77
2022-11-17T12:31:09.472Z,2.07
2022-11-17T12:34:27.075Z,2.27
2022-11-17T12:37:30.010Z,2.30
2022-11-17T12:40:03.937Z,2.47
2022-11-17T12:42:33.055Z,2.43
2022-11-17T12:45:12.682Z,2.03
2022-11-17T12:47:46.174Z,2.00
2022-11-17T12:50:54.614Z,3.37
2022-11-17T12:53:55.016Z,2.83
2022-11-17T12:56:40.991Z,2.40
2022-11-17T12:59:36.317Z,3.40
2022-11-17T13:02:20.070Z,3.03
2022-11-17T13:04:53.414Z,2.73
2022-11-17T13:07:23.834Z,3.60
2022-11-17T13:09:57.115Z,3.20
2022-11-17T13:12:27.462Z,3.53
2022-11-17T13:14:57.913Z,3.27
2022-11-17T13:17:29.716Z,3.80
2022-11-17T13:20:02.746Z,3.63
2022-11-17T13:22:31.451Z,3.80
2022-11-17T13:25:14.506Z,3.20
2022-11-17T13:27:51.111Z,3.00
2022-11-17T13:30:25.474Z,4.33
2022-11-17T13:32:54.943Z,3.83
2022-11-17T13:35:26.281Z,3.60
2022-11-17T13:38:07.858Z,3.17
2022-11-17T13:40:39.474Z,3.20
2022-11-17T13:43:12.382Z,3.97
2022-11-17T13:45:40.819Z,3.67
2022-11-17T13:48:32.994Z,4.07
2022-11-17T13:51:22.896Z,3.90
2022-11-17T13:53:54.399Z,4.40
2022-11-17T13:56:27.643Z,5.03
2022-11-17T13:58:56.875Z,3.33
2022-11-17T14:01:29.261Z,3.97
2022-11-17T14:04:20.043Z,2.73
2022-11-17T14:06:58.215Z,3.27
2022-11-17T14:09:28.740Z,3.20
2022-11-17T14:11:59.714Z,3.43
2022-11-17T14:14:34.011Z,3.00
2022-11-17T14:17:12.843Z,3.67
2022-11-17T14:19:41.287Z,2.00
2022-11-17T14:22:30.842Z,2.20
2022-11-17T14:25:00.127Z,2.90
2022-11-17T14:27:41.006Z,2.20
2022-11-17T14:30:14.465Z,2.00
2022-11-17T14:32:42.753Z,1.60
2022-11-17T14:35:14.669Z,2.20
2022-11-17T14:37:43.152Z,2.23
2022-11-17T14:40:15.163Z,1.87
2022-11-17T14:42:45.165Z,1.87
2022-11-17T14:45:14.753Z,2.10
2022-11-17T14:47:43.655Z,2.03
2022-11-17T14:50:15.009Z,2.13
2022-11-17T14:52:43.929Z,2.23
2022-11-17T14:55:13.489Z,1.97
2022-11-17T14:57:42.506Z,1.57
2022-11-17T15:00:17.395Z,2.07
2022-11-17T15:02:48.754Z,2.20
2022-11-17T15:05:17.188Z,2.93
2022-11-17T15:07:45.555Z,3.30
2022-11-17T15:10:13.863Z,2.97
2022-11-17T15:12:42.198Z,2.63
2022-11-17T15:15:12.352Z,2.90
2022-11-17T15:17:40.750Z,2.60
2022-11-17T15:20:10.142Z,2.90
2022-11-17T15:22:38.599Z,3.13
2022-11-17T15:25:08.125Z,2.40
2022-11-17T15:27:37.518Z,3.07
2022-11-17T15:30:06.899Z,2.90
2022-11-17T15:32:37.840Z,3.10
2022-11-17T15:35:06.862Z,3.30
2022-11-17T15:37:35.153Z,2.83
2022-11-17T15:40:03.469Z,3.17
2022-11-17T15:42:31.749Z,2.50
2022-11-17T15:45:00.038Z,2.63
2022-11-17T15:47:28.411Z,2.60
2022-11-17T15:49:58.698Z,2.03
2022-11-17T15:52:48.623Z,2.80
2022-11-17T15:55:15.553Z,2.10
2022-11-17T15:57:43.777Z,3.30
2022-11-17T16:00:13.644Z,2.23
2022-11-17T16:02:42.569Z,2.33
2022-11-17T16:05:12.297Z,3.60
2022-11-17T16:07:41.050Z,3.00
2022-11-17T16:10:09.945Z,2.40
2022-11-17T16:12:38.183Z,2.83
2022-11-17T16:15:09.642Z,2.67
2022-11-17T16:17:37.970Z,2.40
2022-11-17T16:20:07.450Z,2.73
2022-11-17T16:22:37.164Z,2.70
2022-11-17T16:25:07.425Z,2.87
2022-11-17T16:27:35.813Z,2.67
2022-11-17T16:30:04.375Z,2.67
2022-11-17T16:32:32.828Z,3.07
2022-11-17T16:35:01.081Z,2.97
2022-11-17T16:37:29.301Z,2.20
2022-11-17T16:39:59.029Z,2.17
2022-11-17T16:42:27.345Z,2.77
2022-11-17T16:44:55.719Z,2.37
2022-11-17T16:47:25.125Z,2.63
2022-11-17T16:49:53.428Z,2.57
2022-11-17T16:52:22.289Z,2.70
2022-11-17T16:54:50.542Z,2.33
2022-11-17T16:57:20.580Z,2.93
2022-11-17T16:59:49.305Z,2.67
2022-11-17T17:02:17.675Z,2.53
2022-11-17T17:04:45.918Z,2.60
2022-11-17T17:07:15.459Z,2.30
2022-11-17T17:09:43.847Z,2.20
2022-11-17T17:12:12.322Z,2.77
2022-11-17T17:14:41.976Z,1.97
2022-11-17T17:17:10.306Z,1.80
2022-11-17T17:19:38.576Z,2.43
2022-11-17T17:22:06.931Z,1.80
2022-11-17T17:24:35.270Z,2.37
2022-11-17T17:27:03.620Z,1.87
2022-11-17T17:29:32.023Z,2.30
2022-11-17T17:32:02.757Z,3.07
2022-11-17T17:34:31.046Z,2.13
2022-11-17T17:36:59.367Z,2.43
2022-11-17T17:39:27.742Z,3.13
2022-11-17T17:42:01.642Z,3.63
2022-11-17T17:44:30.806Z,3.77
2022-11-17T17:46:59.077Z,3.70
2022-11-17T17:49:29.865Z,2.37
2022-11-17T17:51:58.211Z,1.67
2022-11-17T17:54:26.604Z,2.07
2022-11-17T17:56:57.299Z,2.17
2022-11-17T17:59:26.660Z,2.63
2022-11-17T18:01:54.973Z,1.90
2022-11-17T18:04:23.456Z,2.20
2022-11-17T18:06:53.145Z,2.13
2022-11-17T18:09:21.458Z,2.00
2022-11-17T18:11:51.331Z,3.73
2022-11-17T18:14:24.271Z,3.13
2022-11-17T18:16:53.494Z,4.60
2022-11-17T18:19:21.951Z,4.17
2022-11-17T18:21:50.540Z,4.77
2022-11-17T18:24:20.108Z,4.17
2022-11-17T18:26:48.476Z,3.77
2022-11-17T18:29:20.361Z,3.10
2022-11-17T18:31:50.691Z,2.80
2022-11-17T18:34:21.156Z,2.93
2022-11-17T18:36:49.877Z,3.20
2022-11-17T18:39:19.793Z,3.00
2022-11-17T18:41:48.703Z,3.60
2022-11-17T18:44:18.673Z,3.33
2022-11-17T18:46:47.934Z,2.90
2022-11-17T18:49:16.633Z,3.30
2022-11-17T18:51:45.978Z,7.03
2022-11-17T18:54:14.275Z,7.87
2022-11-17T18:56:44.768Z,7.80
2022-11-17T18:59:13.459Z,7.73
2022-11-17T19:01:43.406Z,3.97
2022-11-17T19:04:13.949Z,2.37
2022-11-17T19:06:42.426Z,2.03
2022-11-17T19:09:11.156Z,3.50
2022-11-17T19:11:39.440Z,13.47
2022-11-17T19:14:09.264Z,12.20
2022-11-17T19:16:44.509Z,5.67
2022-11-17T19:19:15.303Z,5.80
2022-11-17T19:21:44.220Z,3.43
2022-11-17T19:24:13.035Z,3.17
2022-11-17T19:26:42.810Z,3.37
2022-11-17T19:29:17.268Z,2.27
2022-11-17T19:31:46.757Z,2.13
2022-11-17T19:34:15.458Z,3.10
2022-11-17T19:36:44.683Z,3.80
2022-11-17T19:39:13.903Z,2.30
2022-11-17T19:41:43.729Z,2.47
2022-11-17T19:44:13.575Z,1.63
2022-11-17T19:46:42.763Z,2.10
2022-11-17T19:49:12.858Z,3.50
2022-11-17T19:51:42.043Z,2.63
2022-11-17T19:54:14.365Z,3.37
2022-11-17T19:56:42.791Z,2.13
2022-11-17T19:59:15.664Z,2.43
2022-11-17T20:01:46.975Z,2.00
2022-11-17T20:04:15.429Z,1.43
2022-11-17T20:06:43.782Z,3.30
2022-11-17T20:09:14.207Z,1.50
2022-11-17T20:11:43.237Z,2.10
2022-11-17T20:14:11.646Z,1.87
2022-11-17T20:16:40.102Z,2.67
2022-11-17T20:19:10.481Z,5.17
2022-11-17T20:21:39.921Z,3.40
2022-11-17T20:24:08.725Z,1.83
2022-11-17T20:26:40.689Z,2.60
2022-11-17T20:29:09.244Z,1.93
2022-11-17T20:31:38.676Z,2.00
2022-11-17T20:34:07.129Z,2.37
2022-11-17T20:36:36.954Z,1.90
2022-11-17T20:39:07.622Z,2.83
2022-11-17T20:41:36.226Z,2.23
2022-11-17T20:44:04.891Z,2.07
2022-11-17T20:46:33.434Z,1.73
2022-11-17T20:49:01.813Z,1.90
2022-11-17T20:51:30.084Z,2.40
2022-11-17T20:53:59.793Z,2.40
2022-11-17T20:56:28.082Z,2.00
2022-11-17T20:58:56.500Z,1.60
2022-11-17T21:01:25.008Z,1.13
2022-11-17T21:03:53.675Z,1.23
2022-11-17T21:06:23.490Z,2.10
2022-11-17T21:08:52.366Z,1.90
2022-11-17T21:11:41.351Z,1.40
2022-11-17T21:14:12.902Z,2.10
2022-11-17T21:16:44.464Z,2.73
2022-11-17T21:19:13.533Z,2.40
2022-11-17T21:21:42.068Z,1.93
2022-11-17T21:24:11.448Z,2.13
2022-11-17T21:26:41.213Z,2.23
2022-11-17T21:29:09.621Z,1.53
2022-11-17T21:31:38.009Z,4.23
2022-11-17T21:34:07.993Z,5.00
2022-11-17T21:36:37.009Z,4.10
2022-11-17T21:39:05.959Z,2.43
2022-11-17T21:41:36.310Z,1.60
2022-11-17T21:44:06.310Z,1.40
2022-11-17T21:46:36.540Z,1.20
2022-11-17T21:49:05.543Z,1.90
2022-11-17T21:51:38.713Z,1.50
2022-11-17T21:54:09.868Z,1.40
2022-11-17T21:56:38.729Z,1.23
2022-11-17T21:59:12.498Z,1.00
2022-11-17T22:01:41.339Z,1.17
2022-11-17T22:04:10.263Z,1.13
2022-11-17T22:06:39.975Z,0.67
2022-11-17T22:09:08.709Z,1.30
2022-11-17T22:11:39.023Z,1.03
2022-11-17T22:14:11.266Z,0.93
2022-11-17T22:16:41.420Z,1.00
2022-11-17T22:19:10.537Z,0.80
2022-11-17T22:21:39.763Z,1.00
2022-11-17T22:24:10.854Z,0.90
2022-11-17T22:26:41.278Z,1.17
2022-11-17T22:29:13.620Z,0.73
2022-11-17T22:31:42.295Z,0.60
2022-11-17T22:34:10.579Z,1.57
2022-11-17T22:36:38.880Z,0.70
2022-11-17T22:39:07.356Z,0.40
2022-11-17T22:41:35.650Z,0.33
2022-11-17T22:44:04.227Z,0.77
2022-11-17T22:46:34.961Z,0.73
2022-11-17T22:49:03.499Z,0.50
2022-11-17T22:51:49.570Z,0.70
2022-11-17T22:54:18.169Z,0.37
2022-11-17T22:56:46.771Z,0.37
2022-11-17T22:59:15.280Z,0.20
2022-11-17T23:01:45.111Z,0.50
2022-11-17T23:04:14.254Z,0.40
2022-11-17T23:06:42.513Z,0.30
2022-11-17T23:09:11.203Z,0.40
2022-11-17T23:11:40.063Z,0.47
2022-11-17T23:14:11.157Z,0.43
2022-11-17T23:16:40.091Z,0.60
2022-11-17T23:19:13.584Z,0.90
2022-11-17T23:21:43.181Z,0.50
2022-11-17T23:24:13.087Z,0.53
2022-11-17T23:26:42.194Z,0.43
2022-11-17T23:29:10.773Z,0.47
2022-11-17T23:31:39.105Z,0.30
2022-11-17T23:34:12.200Z,0.50
2022-11-17T23:36:40.590Z,0.63
2022-11-17T23:39:09.191Z,0.57
2022-11-17T23:41:37.551Z,0.67
2022-11-17T23:44:06.431Z,0.70
2022-11-17T23:46:34.787Z,0.40
2022-11-17T23:49:03.590Z,0.40
2022-11-17T23:51:33.478Z,0.40
2022-11-17T23:54:03.065Z,0.47
2022-11-17T23:56:33.768Z,0.50
2022-11-17T23:59:02.362Z,0.70
